createdAt,value
2022-11-29T00:00:16.791Z,91.30
2022-11-29T00:00:39.520Z,86.20
2022-11-29T00:01:04.471Z,89.40
2022-11-29T00:01:28.079Z,92.15
2022-11-29T00:01:50.829Z,90.82
2022-11-29T00:02:13.670Z,89.90
2022-11-29T00:02:36.696Z,86.72
2022-11-29T00:03:01.346Z,87.38
2022-11-29T00:03:24.515Z,88.05
2022-11-29T00:03:47.293Z,89.50
2022-11-29T00:04:12.151Z,92.95
2022-11-29T00:04:35.030Z,88.68
2022-11-29T00:04:57.842Z,92.10
2022-11-29T00:05:20.516Z,90.88
2022-11-29T00:05:43.245Z,88.60
2022-11-29T00:06:08.339Z,91.85
2022-11-29T00:06:32.037Z,90.88
2022-11-29T00:06:54.730Z,92.13
2022-11-29T00:07:17.649Z,95.57
2022-11-29T00:07:40.374Z,91.57
2022-11-29T00:08:03.130Z,91.78
2022-11-29T00:08:25.850Z,91.20
2022-11-29T00:08:48.618Z,92.50
2022-11-29T00:09:12.765Z,95.03
2022-11-29T00:09:35.516Z,94.95
2022-11-29T00:09:58.215Z,92.75
2022-11-29T00:10:21.001Z,96.18
2022-11-29T00:10:43.770Z,95.68
2022-11-29T00:11:09.030Z,88.68
2022-11-29T00:11:51.751Z,96.28
2022-11-29T00:12:14.608Z,97.55
2022-11-29T00:12:37.308Z,95.45
2022-11-29T00:12:59.990Z,93.47
2022-11-29T00:13:22.716Z,95.90
2022-11-29T00:13:45.435Z,94.43
2022-11-29T00:14:11.031Z,93.43
2022-11-29T00:14:33.751Z,94.80
2022-11-29T00:14:56.461Z,92.75
2022-11-29T00:15:19.140Z,92.05
2022-11-29T00:15:41.937Z,93.03
2022-11-29T00:16:05.425Z,91.30
2022-11-29T00:16:28.290Z,94.57
2022-11-29T00:16:52.093Z,93.28
2022-11-29T00:17:15.000Z,92.80
2022-11-29T00:17:37.767Z,97.53
2022-11-29T00:18:01.910Z,94.35
2022-11-29T00:18:24.650Z,94.10
2022-11-29T00:18:49.065Z,95.80
2022-11-29T00:19:12.771Z,94.70
2022-11-29T00:19:36.027Z,94.05
2022-11-29T00:19:58.706Z,96.00
2022-11-29T00:20:21.838Z,95.57
2022-11-29T00:20:44.632Z,97.85
2022-11-29T00:21:07.895Z,103.68
2022-11-29T00:21:30.534Z,101.13
2022-11-29T00:21:53.261Z,99.05
2022-11-29T00:22:15.886Z,100.30
2022-11-29T00:22:38.804Z,98.40
2022-11-29T00:23:01.755Z,98.30
2022-11-29T00:23:24.624Z,101.00
2022-11-29T00:23:47.350Z,102.75
2022-11-29T00:24:10.328Z,102.50
2022-11-29T00:24:33.255Z,99.70
2022-11-29T00:24:56.015Z,102.20
2022-11-29T00:25:18.794Z,104.10
2022-11-29T00:25:43.815Z,99.55
2022-11-29T00:26:07.073Z,102.72
2022-11-29T00:26:29.692Z,102.03
2022-11-29T00:26:52.463Z,105.28
2022-11-29T00:27:15.160Z,106.63
2022-11-29T00:27:37.967Z,104.22
2022-11-29T00:28:00.735Z,107.47
2022-11-29T00:28:23.467Z,106.57
2022-11-29T00:28:46.230Z,105.68
2022-11-29T00:29:10.206Z,104.82
2022-11-29T00:29:32.975Z,105.97
2022-11-29T00:29:55.750Z,106.78
2022-11-29T00:30:18.588Z,104.72
2022-11-29T00:30:41.310Z,104.32
2022-11-29T00:31:14.765Z,106.95
2022-11-29T00:31:37.791Z,106.80
2022-11-29T00:32:00.731Z,104.22
2022-11-29T00:32:23.511Z,105.80
2022-11-29T00:32:46.227Z,106.15
2022-11-29T00:33:10.545Z,104.82
2022-11-29T00:33:33.261Z,102.45
2022-11-29T00:33:56.571Z,108.60
2022-11-29T00:34:19.345Z,107.22
2022-11-29T00:34:42.370Z,105.20
2022-11-29T00:35:09.669Z,103.65
2022-11-29T00:35:32.671Z,106.80
2022-11-29T00:35:55.455Z,106.72
2022-11-29T00:36:18.302Z,106.82
2022-11-29T00:36:41.122Z,110.65
2022-11-29T00:37:06.651Z,110.38
2022-11-29T00:37:29.375Z,113.22
2022-11-29T00:37:52.150Z,112.40
2022-11-29T00:38:14.905Z,110.15
2022-11-29T00:38:37.591Z,110.43
2022-11-29T00:39:00.338Z,108.13
2022-11-29T00:39:23.095Z,111.05
2022-11-29T00:39:45.797Z,107.47
2022-11-29T00:40:09.751Z,109.28
2022-11-29T00:40:33.430Z,112.15
2022-11-29T00:40:56.240Z,107.00
2022-11-29T00:41:19.018Z,113.93
2022-11-29T00:41:41.875Z,109.93
2022-11-29T00:42:04.717Z,108.30
2022-11-29T00:42:27.386Z,110.30
2022-11-29T00:42:50.095Z,111.75
2022-11-29T00:43:12.782Z,112.60
2022-11-29T00:43:36.031Z,111.70
2022-11-29T00:43:58.870Z,112.13
2022-11-29T00:44:21.590Z,114.80
2022-11-29T00:44:44.490Z,118.47
2022-11-29T00:45:08.685Z,115.63
2022-11-29T00:45:31.370Z,114.90
2022-11-29T00:45:54.124Z,119.30
2022-11-29T00:46:17.001Z,119.10
2022-11-29T00:46:39.758Z,120.25
2022-11-29T00:47:02.566Z,120.43
2022-11-29T00:47:25.301Z,119.45
2022-11-29T00:47:48.070Z,123.28
2022-11-29T00:48:12.271Z,121.97
2022-11-29T00:48:35.110Z,118.97
2022-11-29T00:48:57.819Z,123.28
2022-11-29T00:49:20.516Z,127.07
2022-11-29T00:49:43.212Z,127.80
2022-11-29T00:50:07.270Z,127.13
2022-11-29T00:50:29.935Z,123.05
2022-11-29T00:50:52.645Z,121.10
2022-11-29T00:51:15.350Z,120.70
2022-11-29T00:51:40.930Z,122.82
2022-11-29T00:52:03.735Z,119.32
2022-11-29T00:52:26.455Z,118.63
2022-11-29T00:52:49.790Z,121.28
2022-11-29T00:53:12.512Z,119.32
2022-11-29T00:53:35.751Z,117.53
2022-11-29T00:53:58.385Z,111.20
2022-11-29T00:54:21.130Z,113.45
2022-11-29T00:54:43.971Z,117.30
2022-11-29T00:55:07.881Z,120.13
2022-11-29T00:55:30.667Z,121.55
2022-11-29T00:55:53.665Z,120.10
2022-11-29T00:56:16.471Z,121.07
2022-11-29T00:56:39.190Z,117.53
2022-11-29T00:57:01.992Z,114.57
2022-11-29T00:57:24.640Z,116.60
2022-11-29T00:57:47.361Z,115.88
2022-11-29T00:58:10.070Z,113.53
2022-11-29T00:58:32.808Z,113.85
2022-11-29T00:58:55.691Z,110.15
2022-11-29T00:59:18.471Z,110.95
2022-11-29T00:59:41.221Z,116.95
2022-11-29T01:00:04.656Z,114.65
2022-11-29T01:00:27.386Z,113.38
2022-11-29T01:00:50.170Z,112.55
2022-11-29T01:01:12.984Z,113.68
2022-11-29T01:01:35.786Z,113.90
2022-11-29T01:01:58.585Z,109.95
2022-11-29T01:02:21.380Z,109.38
2022-11-29T01:02:45.821Z,109.72
2022-11-29T01:03:08.536Z,114.70
2022-11-29T01:03:32.875Z,112.47
2022-11-29T01:03:55.527Z,118.35
2022-11-29T01:04:18.317Z,113.32
2022-11-29T01:04:41.168Z,111.75
2022-11-29T01:05:04.115Z,111.72
2022-11-29T01:05:26.825Z,112.18
2022-11-29T01:05:49.570Z,109.60
2022-11-29T01:06:13.470Z,115.88
2022-11-29T01:06:36.095Z,114.90
2022-11-29T01:06:58.991Z,114.20
2022-11-29T01:07:21.772Z,114.13
2022-11-29T01:07:44.523Z,113.95
2022-11-29T01:08:07.400Z,114.60
2022-11-29T01:08:30.140Z,113.88
2022-11-29T01:08:54.250Z,112.40
2022-11-29T01:09:16.950Z,117.22
2022-11-29T01:09:40.096Z,117.35
2022-11-29T01:10:04.410Z,117.80
2022-11-29T01:10:27.047Z,117.53
2022-11-29T01:10:49.751Z,113.78
2022-11-29T01:11:14.080Z,121.68
2022-11-29T01:11:36.852Z,119.28
2022-11-29T01:11:59.546Z,120.47
2022-11-29T01:12:22.276Z,117.20
2022-11-29T01:12:44.909Z,114.28
2022-11-29T01:13:07.580Z,115.75
2022-11-29T01:13:30.396Z,119.60
2022-11-29T01:13:55.506Z,119.15
2022-11-29T01:14:19.300Z,118.13
2022-11-29T01:14:43.165Z,117.22
2022-11-29T01:15:07.208Z,117.90
2022-11-29T01:15:29.846Z,116.53
2022-11-29T01:15:56.236Z,115.70
2022-11-29T01:16:19.100Z,117.47
2022-11-29T01:16:41.981Z,113.82
2022-11-29T01:17:04.781Z,118.47
2022-11-29T01:17:27.525Z,118.22
2022-11-29T01:17:50.575Z,116.68
2022-11-29T01:18:13.335Z,111.88
2022-11-29T01:18:37.630Z,111.78
2022-11-29T01:19:00.651Z,110.88
2022-11-29T01:19:23.380Z,112.57
2022-11-29T01:19:50.775Z,107.85
2022-11-29T01:20:14.152Z,109.60
2022-11-29T01:20:36.945Z,111.15
2022-11-29T01:21:00.233Z,104.93
2022-11-29T01:21:24.321Z,104.10
2022-11-29T01:21:46.986Z,106.43
2022-11-29T01:22:09.755Z,115.32
2022-11-29T01:22:32.475Z,107.30
2022-11-29T01:22:55.191Z,109.80
2022-11-29T01:23:17.795Z,107.38
2022-11-29T01:23:40.775Z,108.13
2022-11-29T01:24:03.609Z,111.15
2022-11-29T01:24:26.376Z,111.78
2022-11-29T01:24:49.340Z,112.95
2022-11-29T01:25:13.212Z,112.60
2022-11-29T01:25:35.885Z,109.38
2022-11-29T01:26:00.092Z,115.20
2022-11-29T01:26:23.979Z,113.00
2022-11-29T01:26:46.800Z,111.18
2022-11-29T01:27:10.271Z,107.40
2022-11-29T01:27:33.035Z,112.07
2022-11-29T01:27:56.180Z,108.43
2022-11-29T01:28:19.905Z,107.35
2022-11-29T01:28:42.615Z,108.15
2022-11-29T01:29:05.386Z,109.00
2022-11-29T01:29:28.610Z,107.65
2022-11-29T01:29:51.296Z,110.88
2022-11-29T01:30:14.496Z,107.07
2022-11-29T01:30:38.212Z,111.97
2022-11-29T01:31:07.709Z,110.30
2022-11-29T01:31:32.775Z,109.03
2022-11-29T01:31:58.040Z,106.03
2022-11-29T01:32:20.687Z,110.20
2022-11-29T01:32:43.435Z,106.25
2022-11-29T01:33:06.172Z,109.28
2022-11-29T01:33:28.951Z,109.07
2022-11-29T01:33:55.166Z,109.68
2022-11-29T01:34:17.834Z,109.82
2022-11-29T01:34:40.624Z,108.50
2022-11-29T01:35:03.522Z,105.85
2022-11-29T01:35:26.311Z,110.50
2022-11-29T01:35:49.602Z,113.05
2022-11-29T01:36:12.878Z,113.32
2022-11-29T01:36:35.834Z,112.10
2022-11-29T01:36:58.938Z,105.05
2022-11-29T01:37:21.681Z,111.38
2022-11-29T01:37:44.510Z,109.05
2022-11-29T01:38:07.190Z,110.05
2022-11-29T01:38:30.441Z,111.38
2022-11-29T01:38:53.127Z,110.05
2022-11-29T01:39:15.807Z,110.63
2022-11-29T01:39:38.476Z,108.05
2022-11-29T01:40:01.222Z,104.97
2022-11-29T01:40:23.890Z,105.13
2022-11-29T01:40:48.014Z,109.13
2022-11-29T01:41:12.818Z,106.53
2022-11-29T01:41:36.793Z,112.43
2022-11-29T01:42:00.818Z,105.95
2022-11-29T01:42:23.532Z,106.32
2022-11-29T01:42:46.590Z,107.75
2022-11-29T01:43:13.763Z,110.40
2022-11-29T01:43:54.565Z,111.93
2022-11-29T01:44:50.345Z,104.35
2022-11-29T01:45:21.608Z,110.45
2022-11-29T01:45:44.611Z,112.50
2022-11-29T01:46:07.468Z,110.88
2022-11-29T01:46:31.134Z,110.82
2022-11-29T01:46:54.625Z,110.15
2022-11-29T01:47:17.376Z,111.82
2022-11-29T01:47:41.092Z,111.53
2022-11-29T01:48:04.667Z,103.43
2022-11-29T01:48:28.851Z,104.68
2022-11-29T01:48:54.735Z,101.85
2022-11-29T01:49:18.885Z,109.38
2022-11-29T01:49:42.716Z,105.88
2022-11-29T01:50:07.406Z,104.57
2022-11-29T01:50:30.237Z,105.60
2022-11-29T01:50:53.010Z,109.05
2022-11-29T01:51:15.705Z,111.57
2022-11-29T01:51:39.430Z,113.53
2022-11-29T01:52:04.216Z,109.47
2022-11-29T01:52:28.170Z,107.78
2022-11-29T01:52:50.846Z,105.93
2022-11-29T01:53:13.751Z,108.00
2022-11-29T01:53:36.616Z,106.03
2022-11-29T01:53:59.541Z,108.75
2022-11-29T01:54:22.353Z,110.95
2022-11-29T01:54:47.139Z,112.88
2022-11-29T01:55:10.377Z,110.32
2022-11-29T01:55:33.365Z,108.80
2022-11-29T01:55:58.429Z,103.00
2022-11-29T01:56:21.211Z,106.95
2022-11-29T01:56:43.995Z,110.00
2022-11-29T01:57:07.675Z,107.40
2022-11-29T01:57:30.477Z,105.45
2022-11-29T01:57:53.352Z,105.57
2022-11-29T01:58:16.836Z,103.00
2022-11-29T01:58:39.871Z,106.97
2022-11-29T01:59:03.356Z,103.15
2022-11-29T01:59:27.193Z,104.40
2022-11-29T01:59:51.371Z,105.90
2022-11-29T02:00:16.370Z,106.40
2022-11-29T02:00:39.015Z,105.00
2022-11-29T02:01:04.210Z,104.20
2022-11-29T02:01:27.043Z,104.53
2022-11-29T02:01:49.816Z,106.90
2022-11-29T02:02:14.116Z,107.03
2022-11-29T02:02:38.768Z,100.95
2022-11-29T02:03:04.046Z,107.97
2022-11-29T02:03:26.762Z,102.60
2022-11-29T02:03:49.512Z,101.40
2022-11-29T02:04:13.822Z,103.70
2022-11-29T02:04:36.545Z,102.18
2022-11-29T02:04:59.680Z,105.65
2022-11-29T02:05:25.272Z,103.35
2022-11-29T02:05:49.284Z,102.70
2022-11-29T02:06:11.991Z,99.35
2022-11-29T02:06:34.726Z,104.38
2022-11-29T02:06:57.425Z,102.68
2022-11-29T02:07:20.169Z,106.32
2022-11-29T02:07:47.444Z,97.00
2022-11-29T02:08:13.572Z,98.68
2022-11-29T02:08:38.132Z,99.40
2022-11-29T02:09:00.927Z,98.22
2022-11-29T02:09:23.666Z,97.50
2022-11-29T02:09:46.392Z,96.60
2022-11-29T02:10:10.246Z,97.95
2022-11-29T02:10:40.631Z,99.28
2022-11-29T02:11:17.166Z,99.93
2022-11-29T02:12:00.940Z,96.18
2022-11-29T02:12:27.515Z,93.50
2022-11-29T02:12:55.434Z,95.05
2022-11-29T02:13:23.171Z,95.68
2022-11-29T02:13:49.525Z,97.47
2022-11-29T02:14:25.111Z,95.88
2022-11-29T02:15:05.757Z,97.75
2022-11-29T02:15:37.983Z,97.07
2022-11-29T02:16:04.248Z,93.97
2022-11-29T02:16:29.492Z,95.80
2022-11-29T02:16:56.818Z,99.10
2022-11-29T02:17:23.501Z,96.88
2022-11-29T02:17:58.492Z,102.10
2022-11-29T02:18:22.714Z,100.90
2022-11-29T02:18:50.291Z,96.45
2022-11-29T02:19:22.556Z,99.45
2022-11-29T02:20:10.407Z,104.55
2022-11-29T02:20:51.670Z,98.13
2022-11-29T02:21:27.830Z,96.10
2022-11-29T02:21:51.996Z,99.70
2022-11-29T02:22:15.581Z,100.53
2022-11-29T02:22:40.535Z,101.35
2022-11-29T02:23:08.950Z,95.70
2022-11-29T02:23:51.130Z,104.22
2022-11-29T02:24:53.130Z,98.90
2022-11-29T02:25:39.531Z,99.30
2022-11-29T02:26:07.997Z,101.20
2022-11-29T02:26:52.169Z,100.95
2022-11-29T02:27:30.535Z,102.03
2022-11-29T02:28:25.587Z,98.75
2022-11-29T02:29:18.077Z,99.25
2022-11-29T02:30:10.887Z,104.70
2022-11-29T02:30:59.390Z,102.78
2022-11-29T02:31:44.228Z,100.82
2022-11-29T02:32:30.400Z,105.00
2022-11-29T02:33:23.451Z,103.95
2022-11-29T02:34:00.542Z,103.65
2022-11-29T02:34:51.470Z,101.68
2022-11-29T02:35:20.755Z,105.22
2022-11-29T02:35:56.931Z,103.85
2022-11-29T02:36:49.251Z,104.60
2022-11-29T02:37:21.686Z,106.18
2022-11-29T02:37:54.213Z,102.72
2022-11-29T02:38:25.346Z,103.15
2022-11-29T02:39:07.350Z,103.03
2022-11-29T02:40:05.760Z,101.85
2022-11-29T02:40:37.433Z,102.50
2022-11-29T02:41:15.666Z,99.03
2022-11-29T02:41:47.362Z,101.32
2022-11-29T02:42:54.096Z,100.72
2022-11-29T02:43:51.130Z,99.82
2022-11-29T02:44:42.849Z,104.18
2022-11-29T02:45:09.906Z,102.55
2022-11-29T02:45:43.955Z,102.60
2022-11-29T02:46:17.177Z,101.05
2022-11-29T02:46:47.357Z,105.07
2022-11-29T02:47:17.102Z,109.97
2022-11-29T02:47:50.726Z,108.35
2022-11-29T02:48:27.170Z,105.05
2022-11-29T02:48:53.796Z,99.90
2022-11-29T02:49:20.320Z,106.43
2022-11-29T02:49:55.501Z,104.13
2022-11-29T02:50:20.243Z,106.40
2022-11-29T02:50:44.228Z,106.25
2022-11-29T02:51:08.510Z,101.57
2022-11-29T02:51:35.774Z,104.25
2022-11-29T02:52:00.476Z,99.97
2022-11-29T02:52:30.346Z,102.75
2022-11-29T02:52:59.837Z,97.53
2022-11-29T02:53:25.112Z,100.72
2022-11-29T02:53:51.371Z,96.93
2022-11-29T02:54:17.650Z,96.72
2022-11-29T02:54:45.727Z,104.07
2022-11-29T02:55:11.986Z,107.28
2022-11-29T02:55:39.082Z,105.45
2022-11-29T02:56:07.207Z,102.32
2022-11-29T02:56:32.632Z,103.88
2022-11-29T02:56:57.259Z,102.72
2022-11-29T02:57:22.237Z,100.53
2022-11-29T02:57:50.231Z,104.47
2022-11-29T02:58:17.611Z,105.40
2022-11-29T02:58:44.157Z,110.85
2022-11-29T02:59:11.351Z,113.57
2022-11-29T02:59:41.126Z,111.78
2022-11-29T03:00:05.862Z,113.22
2022-11-29T03:00:28.658Z,114.38
2022-11-29T03:00:58.301Z,114.15
2022-11-29T03:01:24.510Z,110.30
2022-11-29T03:01:50.526Z,112.30
2022-11-29T03:02:20.187Z,112.43
2022-11-29T03:02:48.479Z,113.40
2022-11-29T03:03:14.551Z,110.15
2022-11-29T03:03:39.197Z,107.70
2022-11-29T03:04:04.796Z,107.90
2022-11-29T03:04:31.860Z,108.55
2022-11-29T03:04:58.230Z,108.20
2022-11-29T03:05:24.115Z,109.60
2022-11-29T03:05:50.071Z,104.90
2022-11-29T03:06:17.980Z,110.32
2022-11-29T03:06:44.608Z,106.82
2022-11-29T03:07:12.066Z,111.95
2022-11-29T03:07:39.599Z,108.25
2022-11-29T03:08:06.706Z,109.68
2022-11-29T03:08:32.318Z,114.60
2022-11-29T03:08:58.710Z,113.47
2022-11-29T03:09:25.088Z,107.53
2022-11-29T03:09:49.611Z,110.43
2022-11-29T03:10:18.252Z,111.72
2022-11-29T03:10:50.532Z,111.60
2022-11-29T03:11:17.816Z,111.30
2022-11-29T03:11:45.942Z,109.05
2022-11-29T03:12:16.716Z,105.80
2022-11-29T03:12:40.830Z,108.00
2022-11-29T03:13:05.801Z,104.70
2022-11-29T03:13:37.016Z,104.40
2022-11-29T03:14:09.652Z,108.25
2022-11-29T03:14:50.587Z,107.43
2022-11-29T03:15:21.495Z,111.25
2022-11-29T03:15:46.581Z,110.40
2022-11-29T03:16:13.943Z,108.80
2022-11-29T03:16:43.248Z,108.38
2022-11-29T03:17:13.111Z,106.30
2022-11-29T03:17:39.831Z,107.65
2022-11-29T03:18:15.092Z,113.07
2022-11-29T03:18:42.551Z,114.78
2022-11-29T03:19:10.930Z,116.43
2022-11-29T03:19:46.231Z,105.00
2022-11-29T03:20:20.155Z,112.68
2022-11-29T03:20:50.345Z,109.60
2022-11-29T03:21:18.075Z,109.50
2022-11-29T03:21:49.115Z,113.22
2022-11-29T03:22:15.356Z,112.00
2022-11-29T03:22:43.192Z,114.25
2022-11-29T03:23:15.527Z,109.15
2022-11-29T03:23:39.525Z,108.70
2022-11-29T03:24:05.113Z,111.68
2022-11-29T03:24:31.018Z,106.93
2022-11-29T03:24:56.320Z,111.90
2022-11-29T03:25:21.917Z,111.10
2022-11-29T03:25:46.537Z,110.22
2022-11-29T03:26:10.950Z,105.25
2022-11-29T03:26:35.836Z,106.97
2022-11-29T03:27:01.433Z,107.20
2022-11-29T03:27:26.445Z,106.70
2022-11-29T03:27:56.556Z,104.28
2022-11-29T03:28:20.436Z,102.90
2022-11-29T03:28:46.056Z,101.65
2022-11-29T03:29:12.370Z,102.85
2022-11-29T03:29:38.075Z,102.75
2022-11-29T03:30:00.861Z,103.38
2022-11-29T03:30:23.672Z,111.50
2022-11-29T03:30:50.038Z,101.85
2022-11-29T03:31:16.180Z,104.40
2022-11-29T03:31:41.732Z,99.63
2022-11-29T03:32:07.683Z,101.95
2022-11-29T03:32:33.622Z,101.85
2022-11-29T03:32:58.851Z,101.28
2022-11-29T03:33:27.091Z,99.72
2022-11-29T03:33:53.920Z,101.00
2022-11-29T03:34:20.335Z,105.68
2022-11-29T03:34:54.333Z,102.00
2022-11-29T03:35:22.586Z,102.93
2022-11-29T03:35:48.545Z,103.13
2022-11-29T03:36:14.430Z,98.68
2022-11-29T03:36:40.811Z,103.78
2022-11-29T03:37:06.581Z,100.38
2022-11-29T03:37:32.775Z,99.75
2022-11-29T03:37:58.486Z,101.03
2022-11-29T03:38:26.273Z,103.05
2022-11-29T03:38:49.106Z,99.82
2022-11-29T03:39:17.606Z,105.55
2022-11-29T03:39:45.606Z,103.00
2022-11-29T03:40:09.790Z,99.45
2022-11-29T03:40:39.526Z,102.28
2022-11-29T03:41:06.237Z,102.45
2022-11-29T03:41:31.197Z,106.88
2022-11-29T03:41:55.849Z,101.85
2022-11-29T03:42:22.001Z,104.25
2022-11-29T03:42:48.719Z,104.18
2022-11-29T03:43:14.576Z,104.07
2022-11-29T03:43:42.106Z,104.43
2022-11-29T03:44:09.920Z,104.47
2022-11-29T03:44:36.157Z,106.03
2022-11-29T03:45:07.912Z,105.82
2022-11-29T03:45:33.118Z,106.75
2022-11-29T03:45:57.955Z,105.78
2022-11-29T03:46:25.635Z,105.40
2022-11-29T03:46:52.780Z,109.43
2022-11-29T03:47:16.580Z,109.72
2022-11-29T03:47:41.442Z,107.50
2022-11-29T03:48:07.672Z,108.25
2022-11-29T03:48:33.303Z,111.05
2022-11-29T03:48:59.831Z,111.68
2022-11-29T03:49:26.070Z,112.82
2022-11-29T03:49:51.831Z,117.65
2022-11-29T03:50:16.630Z,120.88
2022-11-29T03:50:40.611Z,124.57
2022-11-29T03:51:05.871Z,120.75
2022-11-29T03:51:34.406Z,114.95
2022-11-29T03:52:01.347Z,114.47
2022-11-29T03:52:27.178Z,114.47
2022-11-29T03:52:52.075Z,116.93
2022-11-29T03:53:17.961Z,117.93
2022-11-29T03:53:45.650Z,109.45
2022-11-29T03:54:11.061Z,116.28
2022-11-29T03:54:38.796Z,113.72
2022-11-29T03:55:10.235Z,116.45
2022-11-29T03:55:45.390Z,114.93
2022-11-29T03:56:26.575Z,116.80
2022-11-29T03:56:50.136Z,114.88
2022-11-29T03:57:13.055Z,111.05
2022-11-29T03:57:40.777Z,110.13
2022-11-29T03:58:14.715Z,116.18
2022-11-29T03:58:46.576Z,110.93
2022-11-29T03:59:18.809Z,108.55
2022-11-29T03:59:49.106Z,112.65
2022-11-29T04:00:12.955Z,108.90
2022-11-29T04:00:41.916Z,109.70
2022-11-29T04:01:25.926Z,114.75
2022-11-29T04:02:22.156Z,110.60
2022-11-29T04:03:03.084Z,107.82
2022-11-29T04:03:59.117Z,109.07
2022-11-29T04:04:41.808Z,111.50
2022-11-29T04:05:36.620Z,114.63
2022-11-29T04:06:20.836Z,116.35
2022-11-29T04:06:51.511Z,116.20
2022-11-29T04:07:25.613Z,114.25
2022-11-29T04:08:01.392Z,106.50
2022-11-29T04:08:45.531Z,111.25
2022-11-29T04:09:24.407Z,112.40
2022-11-29T04:09:57.607Z,107.43
2022-11-29T04:10:34.615Z,110.80
2022-11-29T04:11:30.936Z,109.13
2022-11-29T04:12:17.242Z,107.90
2022-11-29T04:13:18.550Z,108.05
2022-11-29T04:13:55.910Z,106.25
2022-11-29T04:14:54.652Z,108.07
2022-11-29T04:15:53.075Z,108.68
2022-11-29T04:16:47.516Z,111.35
2022-11-29T04:17:36.004Z,114.28
2022-11-29T04:18:46.375Z,107.50
2022-11-29T04:19:44.472Z,107.93
2022-11-29T04:20:37.579Z,112.70
2022-11-29T04:21:50.637Z,108.75
2022-11-29T04:22:29.447Z,115.55
2022-11-29T04:23:50.481Z,113.20
2022-11-29T04:24:39.379Z,111.30
2022-11-29T04:25:30.360Z,107.07
2022-11-29T04:26:02.318Z,112.45
2022-11-29T04:27:06.872Z,104.13
2022-11-29T04:27:49.680Z,110.95
2022-11-29T04:28:35.167Z,108.25
2022-11-29T04:29:12.691Z,115.30
2022-11-29T04:30:01.281Z,109.45
2022-11-29T04:30:24.220Z,109.50
2022-11-29T04:30:51.871Z,106.18
2022-11-29T04:31:17.834Z,106.57
2022-11-29T04:31:50.535Z,111.25
2022-11-29T04:32:58.175Z,114.13
2022-11-29T04:33:47.731Z,115.70
2022-11-29T04:34:31.980Z,116.22
2022-11-29T04:35:11.436Z,107.57
2022-11-29T04:35:56.231Z,107.82
2022-11-29T04:36:46.146Z,116.75
2022-11-29T04:37:32.020Z,109.70
2022-11-29T04:38:18.941Z,112.50
2022-11-29T04:39:03.185Z,108.95
2022-11-29T04:39:46.302Z,107.57
2022-11-29T04:40:30.066Z,106.10
2022-11-29T04:41:02.546Z,104.55
2022-11-29T04:41:34.435Z,103.97
2022-11-29T04:42:10.550Z,101.13
2022-11-29T04:42:46.480Z,97.93
2022-11-29T04:43:35.736Z,97.05
2022-11-29T04:44:08.311Z,99.38
2022-11-29T04:44:53.003Z,95.82
2022-11-29T04:45:45.005Z,97.15
2022-11-29T04:46:33.392Z,93.38
2022-11-29T04:47:14.826Z,98.22
2022-11-29T04:47:47.726Z,92.20
2022-11-29T04:48:23.830Z,94.07
2022-11-29T04:49:03.371Z,97.60
2022-11-29T04:50:07.677Z,98.47
2022-11-29T04:50:43.511Z,101.50
2022-11-29T04:51:12.627Z,97.63
2022-11-29T04:51:48.895Z,95.57
2022-11-29T04:52:39.490Z,96.75
2022-11-29T04:53:24.211Z,100.25
2022-11-29T04:53:52.795Z,97.80
2022-11-29T04:54:19.937Z,98.70
2022-11-29T04:54:46.165Z,99.70
2022-11-29T04:55:19.428Z,99.20
2022-11-29T04:55:49.757Z,95.93
2022-11-29T04:56:16.001Z,100.22
2022-11-29T04:56:41.458Z,98.28
2022-11-29T04:57:07.566Z,100.18
2022-11-29T04:57:35.447Z,96.22
2022-11-29T04:58:01.690Z,96.75
2022-11-29T04:58:26.968Z,98.18
2022-11-29T04:58:55.591Z,99.25
2022-11-29T04:59:20.993Z,91.85
2022-11-29T04:59:45.055Z,95.47
2022-11-29T05:00:10.151Z,92.72
2022-11-29T05:00:35.196Z,95.30
2022-11-29T05:01:04.157Z,96.10
2022-11-29T05:01:31.550Z,96.18
2022-11-29T05:02:01.055Z,92.50
2022-11-29T05:02:32.834Z,93.47
2022-11-29T05:02:57.061Z,93.47
2022-11-29T05:03:23.917Z,94.18
2022-11-29T05:03:55.396Z,96.28
2022-11-29T05:04:22.933Z,93.82
2022-11-29T05:04:48.706Z,94.00
2022-11-29T05:05:18.886Z,94.07
2022-11-29T05:05:45.341Z,95.25
2022-11-29T05:06:20.645Z,92.57
2022-11-29T05:06:46.836Z,97.05
2022-11-29T05:07:14.530Z,93.75
2022-11-29T05:07:40.595Z,96.00
2022-11-29T05:08:12.980Z,97.50
2022-11-29T05:08:42.561Z,94.32
2022-11-29T05:09:10.912Z,92.75
2022-11-29T05:09:43.427Z,95.88
2022-11-29T05:10:20.613Z,94.95
2022-11-29T05:10:48.438Z,95.68
2022-11-29T05:11:14.711Z,96.72
2022-11-29T05:11:44.788Z,95.95
2022-11-29T05:12:11.212Z,92.43
2022-11-29T05:12:38.507Z,95.35
2022-11-29T05:13:06.551Z,93.78
2022-11-29T05:13:32.330Z,95.38
2022-11-29T05:13:57.500Z,94.20
2022-11-29T05:14:24.966Z,93.60
2022-11-29T05:14:57.367Z,95.53
2022-11-29T05:15:52.359Z,97.38
2022-11-29T05:16:21.490Z,94.85
2022-11-29T05:16:49.069Z,94.15
2022-11-29T05:17:32.534Z,92.25
2022-11-29T05:17:59.041Z,94.18
2022-11-29T05:18:26.710Z,94.68
2022-11-29T05:19:17.774Z,99.47
2022-11-29T05:19:49.760Z,93.15
2022-11-29T05:20:19.416Z,100.43
2022-11-29T05:20:47.014Z,96.47
2022-11-29T05:21:11.947Z,93.13
2022-11-29T05:21:41.606Z,97.20
2022-11-29T05:22:13.456Z,93.38
2022-11-29T05:22:40.166Z,97.70
2022-11-29T05:23:12.078Z,94.35
2022-11-29T05:23:44.972Z,98.22
2022-11-29T05:24:15.040Z,91.63
2022-11-29T05:24:48.607Z,96.15
2022-11-29T05:25:28.385Z,97.72
2022-11-29T05:25:53.346Z,96.35
2022-11-29T05:26:19.015Z,94.45
2022-11-29T05:26:45.011Z,102.45
2022-11-29T05:27:13.256Z,102.55
2022-11-29T05:27:42.472Z,96.50
2022-11-29T05:28:10.576Z,99.47
2022-11-29T05:28:36.931Z,93.45
2022-11-29T05:29:02.251Z,92.88
2022-11-29T05:29:28.001Z,91.97
2022-11-29T05:29:54.585Z,95.65
2022-11-29T05:30:19.610Z,96.40
2022-11-29T05:31:03.398Z,94.15
2022-11-29T05:31:38.603Z,94.00
2022-11-29T05:32:11.591Z,97.47
2022-11-29T05:32:35.991Z,94.32
2022-11-29T05:33:03.668Z,86.75
2022-11-29T05:33:35.382Z,89.03
2022-11-29T05:34:24.052Z,94.90
2022-11-29T05:34:55.854Z,96.72
2022-11-29T05:35:52.144Z,93.57
2022-11-29T05:36:17.972Z,98.95
2022-11-29T05:36:43.099Z,93.82
2022-11-29T05:37:11.001Z,91.38
2022-11-29T05:37:38.235Z,93.10
2022-11-29T05:38:03.946Z,89.65
2022-11-29T05:38:53.293Z,90.32
2022-11-29T05:39:40.290Z,89.95
2022-11-29T05:40:40.862Z,91.43
2022-11-29T05:41:12.951Z,91.65
2022-11-29T05:41:47.596Z,88.22
2022-11-29T05:42:26.035Z,92.30
2022-11-29T05:42:56.666Z,89.78
2022-11-29T05:43:33.511Z,90.90
2022-11-29T05:44:03.796Z,86.18
2022-11-29T05:44:31.031Z,90.43
2022-11-29T05:44:55.681Z,95.03
2022-11-29T05:45:21.172Z,90.68
2022-11-29T05:45:46.607Z,89.95
2022-11-29T05:46:13.002Z,89.43
2022-11-29T05:46:38.081Z,90.50
2022-11-29T05:47:02.166Z,91.15
2022-11-29T05:47:31.560Z,87.60
2022-11-29T05:47:56.797Z,93.55
2022-11-29T05:48:22.771Z,89.72
2022-11-29T05:48:49.950Z,90.35
2022-11-29T05:49:19.412Z,92.38
2022-11-29T05:49:43.671Z,90.05
2022-11-29T05:50:10.011Z,84.90
2022-11-29T05:50:35.610Z,87.82
2022-11-29T05:51:07.202Z,91.57
2022-11-29T05:51:41.970Z,89.10
2022-11-29T05:52:18.482Z,88.70
2022-11-29T05:52:47.666Z,88.40
2022-11-29T05:53:16.548Z,87.28
2022-11-29T05:53:43.463Z,82.82
2022-11-29T05:54:13.438Z,88.90
2022-11-29T05:54:37.786Z,92.82
2022-11-29T05:55:14.876Z,89.18
2022-11-29T05:55:41.777Z,86.75
2022-11-29T05:56:07.220Z,89.93
2022-11-29T05:56:36.811Z,87.15
2022-11-29T05:57:08.525Z,86.30
2022-11-29T05:57:36.647Z,92.53
2022-11-29T05:58:01.277Z,87.03
2022-11-29T05:58:30.878Z,85.70
2022-11-29T05:58:56.330Z,85.50
2022-11-29T05:59:20.738Z,86.10
2022-11-29T05:59:43.506Z,85.30
2022-11-29T06:00:07.844Z,83.40
2022-11-29T06:00:34.249Z,85.07